sensor_id;sensor_type;location;lat;lon;timestamp;temperature;humidity
33988;DHT22;37428;53.580;-1.666;2023-07-20T00:02:44;13.40;81.40
33988;DHT22;37428;53.580;-1.666;2023-07-20T00:06:03;13.40;81.40
33988;DHT22;37428;53.580;-1.666;2023-07-20T00:09:45;13.30;81.40
33988;DHT22;37428;53.580;-1.666;2023-07-20T00:12:40;13.40;81.80
33988;DHT22;37428;53.580;-1.666;2023-07-20T00:16:09;13.30;82.00
33988;DHT22;37428;53.580;-1.666;2023-07-20T00:19:47;13.30;82.00
33988;DHT22;37428;53.580;-1.666;2023-07-20T00:23:13;13.30;82.10
33988;DHT22;37428;53.580;-1.666;2023-07-20T00:26:21;13.20;82.00
33988;DHT22;37428;53.580;-1.666;2023-07-20T00:29:23;13.20;82.30
33988;DHT22;37428;53.580;-1.666;2023-07-20T00:32:33;13.20;82.80
33988;DHT22;37428;53.580;-1.666;2023-07-20T00:37:24;13.20;82.70
33988;DHT22;37428;53.580;-1.666;2023-07-20T00:39:36;13.20;82.60
33988;DHT22;37428;53.580;-1.666;2023-07-20T00:42:54;13.20;82.70
33988;DHT22;37428;53.580;-1.666;2023-07-20T00:46:53;13.20;82.60
33988;DHT22;37428;53.580;-1.666;2023-07-20T00:50:30;13.20;82.70
33988;DHT22;37428;53.580;-1.666;2023-07-20T00:53:49;13.10;82.50
33988;DHT22;37428;53.580;-1.666;2023-07-20T01:00:32;13.10;82.90
33988;DHT22;37428;53.580;-1.666;2023-07-20T01:03:50;13.10;82.90
33988;DHT22;37428;53.580;-1.666;2023-07-20T01:07:06;13.10;83.40
33988;DHT22;37428;53.580;-1.666;2023-07-20T01:10:14;13.10;83.60
33988;DHT22;37428;53.580;-1.666;2023-07-20T01:13:31;13.10;83.50
33988;DHT22;37428;53.580;-1.666;2023-07-20T01:16:54;13.10;83.40
33988;DHT22;37428;53.580;-1.666;2023-07-20T01:20:27;13.10;83.30
33988;DHT22;37428;53.580;-1.666;2023-07-20T01:23:50;13.10;83.20
33988;DHT22;37428;53.580;-1.666;2023-07-20T01:38:16;13.20;82.90
33988;DHT22;37428;53.580;-1.666;2023-07-20T01:41:24;13.10;83.10
33988;DHT22;37428;53.580;-1.666;2023-07-20T01:44:50;13.10;83.10
33988;DHT22;37428;53.580;-1.666;2023-07-20T01:48:22;13.00;83.50
33988;DHT22;37428;53.580;-1.666;2023-07-20T01:52:06;13.00;83.50
33988;DHT22;37428;53.580;-1.666;2023-07-20T01:55:05;12.90;83.70
33988;DHT22;37428;53.580;-1.666;2023-07-20T01:58:09;12.80;84.40
33988;DHT22;37428;53.580;-1.666;2023-07-20T02:01:11;12.80;84.20
33988;DHT22;37428;53.580;-1.666;2023-07-20T02:04:20;12.80;84.40
33988;DHT22;37428;53.580;-1.666;2023-07-20T02:07:23;12.80;84.60
33988;DHT22;37428;53.580;-1.666;2023-07-20T02:10:26;12.80;85.10
33988;DHT22;37428;53.580;-1.666;2023-07-20T02:13:28;12.80;85.40
33988;DHT22;37428;53.580;-1.666;2023-07-20T02:16:30;12.80;85.50
33988;DHT22;37428;53.580;-1.666;2023-07-20T02:19:55;12.90;85.60
33988;DHT22;37428;53.580;-1.666;2023-07-20T02:22:58;12.80;85.60
33988;DHT22;37428;53.580;-1.666;2023-07-20T02:26:02;12.80;85.90
33988;DHT22;37428;53.580;-1.666;2023-07-20T02:29:04;12.80;85.70
33988;DHT22;37428;53.580;-1.666;2023-07-20T02:32:18;12.70;86.10
33988;DHT22;37428;53.580;-1.666;2023-07-20T02:35:20;12.70;86.40
33988;DHT22;37428;53.580;-1.666;2023-07-20T02:38:25;12.60;86.20
33988;DHT22;37428;53.580;-1.666;2023-07-20T02:41:40;12.60;87.10
33988;DHT22;37428;53.580;-1.666;2023-07-20T02:44:42;12.70;87.60
33988;DHT22;37428;53.580;-1.666;2023-07-20T02:47:47;12.70;88.10
33988;DHT22;37428;53.580;-1.666;2023-07-20T02:50:49;12.80;88.00
33988;DHT22;37428;53.580;-1.666;2023-07-20T02:53:54;12.80;88.10
33988;DHT22;37428;53.580;-1.666;2023-07-20T02:57:09;12.90;88.20
33988;DHT22;37428;53.580;-1.666;2023-07-20T03:00:13;12.90;88.20
33988;DHT22;37428;53.580;-1.666;2023-07-20T03:03:24;12.90;88.10
33988;DHT22;37428;53.580;-1.666;2023-07-20T03:06:32;13.00;88.10
33988;DHT22;37428;53.580;-1.666;2023-07-20T03:09:36;13.00;88.00
33988;DHT22;37428;53.580;-1.666;2023-07-20T03:12:55;13.00;88.10
33988;DHT22;37428;53.580;-1.666;2023-07-20T03:19:43;13.00;88.20
33988;DHT22;37428;53.580;-1.666;2023-07-20T03:22:57;13.00;88.40
33988;DHT22;37428;53.580;-1.666;2023-07-20T03:26:33;13.00;88.00
33988;DHT22;37428;53.580;-1.666;2023-07-20T03:29:39;13.10;88.20
33988;DHT22;37428;53.580;-1.666;2023-07-20T03:32:43;13.10;88.30
33988;DHT22;37428;53.580;-1.666;2023-07-20T03:36:00;13.10;88.50
33988;DHT22;37428;53.580;-1.666;2023-07-20T03:39:09;13.10;88.50
33988;DHT22;37428;53.580;-1.666;2023-07-20T03:42:34;13.00;88.70
33988;DHT22;37428;53.580;-1.666;2023-07-20T03:45:42;13.00;89.00
33988;DHT22;37428;53.580;-1.666;2023-07-20T03:48:56;13.10;89.20
33988;DHT22;37428;53.580;-1.666;2023-07-20T03:52:01;13.10;89.20
33988;DHT22;37428;53.580;-1.666;2023-07-20T03:55:10;13.10;89.20
33988;DHT22;37428;53.580;-1.666;2023-07-20T03:58:26;13.10;88.90
33988;DHT22;37428;53.580;-1.666;2023-07-20T04:01:39;13.10;88.90
33988;DHT22;37428;53.580;-1.666;2023-07-20T04:04:56;13.10;89.20
33988;DHT22;37428;53.580;-1.666;2023-07-20T04:07:58;13.10;89.00
33988;DHT22;37428;53.580;-1.666;2023-07-20T04:11:07;13.10;89.30
33988;DHT22;37428;53.580;-1.666;2023-07-20T04:14:20;13.10;89.20
33988;DHT22;37428;53.580;-1.666;2023-07-20T04:17:24;13.10;89.20
33988;DHT22;37428;53.580;-1.666;2023-07-20T04:20:26;13.10;89.30
33988;DHT22;37428;53.580;-1.666;2023-07-20T04:23:35;13.10;89.30
33988;DHT22;37428;53.580;-1.666;2023-07-20T04:26:51;13.10;89.30
33988;DHT22;37428;53.580;-1.666;2023-07-20T04:30:01;13.10;89.20
33988;DHT22;37428;53.580;-1.666;2023-07-20T04:33:06;13.10;89.20
33988;DHT22;37428;53.580;-1.666;2023-07-20T04:36:18;13.10;89.30
33988;DHT22;37428;53.580;-1.666;2023-07-20T04:39:32;13.10;89.60
33988;DHT22;37428;53.580;-1.666;2023-07-20T04:42:34;13.10;89.60
33988;DHT22;37428;53.580;-1.666;2023-07-20T04:46:06;13.10;89.00
33988;DHT22;37428;53.580;-1.666;2023-07-20T04:49:15;13.20;89.20
33988;DHT22;37428;53.580;-1.666;2023-07-20T04:52:19;13.20;89.50
33988;DHT22;37428;53.580;-1.666;2023-07-20T04:55:27;13.20;89.40
33988;DHT22;37428;53.580;-1.666;2023-07-20T05:02:18;13.20;89.30
33988;DHT22;37428;53.580;-1.666;2023-07-20T05:05:31;13.10;89.60
33988;DHT22;37428;53.580;-1.666;2023-07-20T05:08:42;13.10;89.60
33988;DHT22;37428;53.580;-1.666;2023-07-20T05:11:59;13.10;89.90
33988;DHT22;37428;53.580;-1.666;2023-07-20T05:16:53;13.10;89.70
33988;DHT22;37428;53.580;-1.666;2023-07-20T05:18:48;13.00;90.00
33988;DHT22;37428;53.580;-1.666;2023-07-20T05:21:53;13.00;90.60
33988;DHT22;37428;53.580;-1.666;2023-07-20T05:25:01;13.00;90.40
33988;DHT22;37428;53.580;-1.666;2023-07-20T05:28:05;13.00;90.90
33988;DHT22;37428;53.580;-1.666;2023-07-20T05:31:27;12.90;91.20
33988;DHT22;37428;53.580;-1.666;2023-07-20T05:34:31;12.90;90.90
33988;DHT22;37428;53.580;-1.666;2023-07-20T05:41:21;13.00;90.60
33988;DHT22;37428;53.580;-1.666;2023-07-20T05:44:23;13.10;90.10
33988;DHT22;37428;53.580;-1.666;2023-07-20T05:47:29;13.10;89.70
33988;DHT22;37428;53.580;-1.666;2023-07-20T05:50:32;13.20;89.90
33988;DHT22;37428;53.580;-1.666;2023-07-20T05:53:48;13.10;89.10
33988;DHT22;37428;53.580;-1.666;2023-07-20T05:57:10;13.20;89.20
33988;DHT22;37428;53.580;-1.666;2023-07-20T06:00:17;13.30;89.20
33988;DHT22;37428;53.580;-1.666;2023-07-20T06:03:37;13.40;88.50
33988;DHT22;37428;53.580;-1.666;2023-07-20T06:06:55;13.50;88.70
33988;DHT22;37428;53.580;-1.666;2023-07-20T06:10:03;13.50;88.40
33988;DHT22;37428;53.580;-1.666;2023-07-20T06:13:38;13.50;87.40
33988;DHT22;37428;53.580;-1.666;2023-07-20T06:16:46;13.60;87.10
33988;DHT22;37428;53.580;-1.666;2023-07-20T06:19:50;13.60;87.10
33988;DHT22;37428;53.580;-1.666;2023-07-20T06:23:31;13.60;86.20
33988;DHT22;37428;53.580;-1.666;2023-07-20T06:26:45;13.60;86.20
33988;DHT22;37428;53.580;-1.666;2023-07-20T06:29:51;13.70;86.30
33988;DHT22;37428;53.580;-1.666;2023-07-20T06:33:07;13.70;85.90
33988;DHT22;37428;53.580;-1.666;2023-07-20T06:36:15;13.70;85.90
33988;DHT22;37428;53.580;-1.666;2023-07-20T06:39:58;13.80;85.60
33988;DHT22;37428;53.580;-1.666;2023-07-20T06:42:56;13.80;84.90
33988;DHT22;37428;53.580;-1.666;2023-07-20T06:45:59;13.90;85.50
33988;DHT22;37428;53.580;-1.666;2023-07-20T06:49:01;13.90;85.40
33988;DHT22;37428;53.580;-1.666;2023-07-20T06:52:15;14.00;84.90
33988;DHT22;37428;53.580;-1.666;2023-07-20T06:55:27;14.00;84.80
33988;DHT22;37428;53.580;-1.666;2023-07-20T06:58:29;14.00;84.50
33988;DHT22;37428;53.580;-1.666;2023-07-20T07:01:40;14.00;84.50
33988;DHT22;37428;53.580;-1.666;2023-07-20T07:05:11;14.00;84.60
33988;DHT22;37428;53.580;-1.666;2023-07-20T07:08:18;14.10;84.50
33988;DHT22;37428;53.580;-1.666;2023-07-20T07:11:32;14.10;84.20
33988;DHT22;37428;53.580;-1.666;2023-07-20T07:15:05;14.20;83.90
33988;DHT22;37428;53.580;-1.666;2023-07-20T07:18:14;14.30;83.50
33988;DHT22;37428;53.580;-1.666;2023-07-20T07:21:28;14.30;82.50
33988;DHT22;37428;53.580;-1.666;2023-07-20T07:24:33;14.40;82.40
33988;DHT22;37428;53.580;-1.666;2023-07-20T07:27:49;14.40;82.10
33988;DHT22;37428;53.580;-1.666;2023-07-20T07:30:58;14.50;82.00
33988;DHT22;37428;53.580;-1.666;2023-07-20T07:34:17;14.70;81.30
33988;DHT22;37428;53.580;-1.666;2023-07-20T07:37:19;14.70;80.40
33988;DHT22;37428;53.580;-1.666;2023-07-20T07:40:24;14.80;80.40
33988;DHT22;37428;53.580;-1.666;2023-07-20T07:43:41;14.80;79.50
33988;DHT22;37428;53.580;-1.666;2023-07-20T07:46:56;14.90;78.70
33988;DHT22;37428;53.580;-1.666;2023-07-20T07:50:05;15.00;78.50
33988;DHT22;37428;53.580;-1.666;2023-07-20T07:53:07;15.00;79.00
33988;DHT22;37428;53.580;-1.666;2023-07-20T07:56:13;15.10;77.30
33988;DHT22;37428;53.580;-1.666;2023-07-20T07:59:16;15.20;77.40
33988;DHT22;37428;53.580;-1.666;2023-07-20T08:02:26;15.30;77.80
33988;DHT22;37428;53.580;-1.666;2023-07-20T08:05:37;15.40;76.70
33988;DHT22;37428;53.580;-1.666;2023-07-20T08:08:45;15.40;77.00
33988;DHT22;37428;53.580;-1.666;2023-07-20T08:12:01;15.40;76.30
33988;DHT22;37428;53.580;-1.666;2023-07-20T08:15:07;15.50;76.10
33988;DHT22;37428;53.580;-1.666;2023-07-20T08:18:29;15.60;76.60
33988;DHT22;37428;53.580;-1.666;2023-07-20T08:25:09;15.90;77.20
33988;DHT22;37428;53.580;-1.666;2023-07-20T08:28:16;16.10;75.80
33988;DHT22;37428;53.580;-1.666;2023-07-20T08:31:41;16.20;74.70
33988;DHT22;37428;53.580;-1.666;2023-07-20T08:34:44;16.30;74.00
33988;DHT22;37428;53.580;-1.666;2023-07-20T08:38:05;16.30;73.50
33988;DHT22;37428;53.580;-1.666;2023-07-20T08:41:09;16.50;74.00
33988;DHT22;37428;53.580;-1.666;2023-07-20T08:44:14;16.60;71.40
33988;DHT22;37428;53.580;-1.666;2023-07-20T08:47:56;16.80;70.90
33988;DHT22;37428;53.580;-1.666;2023-07-20T08:51:05;16.90;70.10
33988;DHT22;37428;53.580;-1.666;2023-07-20T08:57:46;17.00;68.60
33988;DHT22;37428;53.580;-1.666;2023-07-20T09:00:52;17.10;67.60
33988;DHT22;37428;53.580;-1.666;2023-07-20T09:04:17;17.30;68.50
33988;DHT22;37428;53.580;-1.666;2023-07-20T09:07:54;17.50;67.50
33988;DHT22;37428;53.580;-1.666;2023-07-20T09:11:06;17.60;66.80
33988;DHT22;37428;53.580;-1.666;2023-07-20T09:14:29;17.60;67.10
33988;DHT22;37428;53.580;-1.666;2023-07-20T09:17:51;17.70;65.30
33988;DHT22;37428;53.580;-1.666;2023-07-20T09:21:04;17.60;64.20
33988;DHT22;37428;53.580;-1.666;2023-07-20T09:24:10;17.40;62.90
33988;DHT22;37428;53.580;-1.666;2023-07-20T09:27:22;17.30;63.20
33988;DHT22;37428;53.580;-1.666;2023-07-20T09:30:35;17.60;63.00
33988;DHT22;37428;53.580;-1.666;2023-07-20T09:33:39;18.20;62.50
33988;DHT22;37428;53.580;-1.666;2023-07-20T09:36:41;19.00;61.70
33988;DHT22;37428;53.580;-1.666;2023-07-20T09:39:44;19.10;58.90
33988;DHT22;37428;53.580;-1.666;2023-07-20T09:42:56;19.40;59.10
33988;DHT22;37428;53.580;-1.666;2023-07-20T09:46:52;19.80;58.70
33988;DHT22;37428;53.580;-1.666;2023-07-20T09:49:45;20.00;57.50
33988;DHT22;37428;53.580;-1.666;2023-07-20T09:53:18;20.20;57.00
33988;DHT22;37428;53.580;-1.666;2023-07-20T09:56:21;20.50;56.80
33988;DHT22;37428;53.580;-1.666;2023-07-20T09:59:56;20.40;55.40
33988;DHT22;37428;53.580;-1.666;2023-07-20T10:03:16;20.10;54.60
33988;DHT22;37428;53.580;-1.666;2023-07-20T10:06:23;19.90;55.80
33988;DHT22;37428;53.580;-1.666;2023-07-20T10:09:51;19.90;55.20
33988;DHT22;37428;53.580;-1.666;2023-07-20T10:13:00;19.70;55.40
33988;DHT22;37428;53.580;-1.666;2023-07-20T10:16:03;19.40;56.20
33988;DHT22;37428;53.580;-1.666;2023-07-20T10:19:21;19.40;56.70
33988;DHT22;37428;53.580;-1.666;2023-07-20T10:22:27;19.20;56.40
33988;DHT22;37428;53.580;-1.666;2023-07-20T10:25:47;19.00;56.60
33988;DHT22;37428;53.580;-1.666;2023-07-20T10:28:50;18.90;55.80
33988;DHT22;37428;53.580;-1.666;2023-07-20T10:31:54;19.10;56.30
33988;DHT22;37428;53.580;-1.666;2023-07-20T10:34:58;19.50;55.50
33988;DHT22;37428;53.580;-1.666;2023-07-20T10:38:01;19.60;55.70
33988;DHT22;37428;53.580;-1.666;2023-07-20T10:41:16;19.80;52.20
33988;DHT22;37428;53.580;-1.666;2023-07-20T10:44:47;19.80;49.90
33988;DHT22;37428;53.580;-1.666;2023-07-20T10:47:58;19.50;50.00
33988;DHT22;37428;53.580;-1.666;2023-07-20T10:51:26;19.60;52.10
33988;DHT22;37428;53.580;-1.666;2023-07-20T10:54:46;20.00;50.10
33988;DHT22;37428;53.580;-1.666;2023-07-20T10:58:37;20.20;52.10
33988;DHT22;37428;53.580;-1.666;2023-07-20T11:01:52;20.20;50.70
33988;DHT22;37428;53.580;-1.666;2023-07-20T11:05:32;20.30;51.30
33988;DHT22;37428;53.580;-1.666;2023-07-20T11:12:38;20.70;48.00
33988;DHT22;37428;53.580;-1.666;2023-07-20T11:22:40;20.10;48.80
33988;DHT22;37428;53.580;-1.666;2023-07-20T11:26:12;19.90;47.20
33988;DHT22;37428;53.580;-1.666;2023-07-20T11:29:22;19.50;47.90
33988;DHT22;37428;53.580;-1.666;2023-07-20T11:32:27;19.60;49.50
33988;DHT22;37428;53.580;-1.666;2023-07-20T11:35:51;20.00;49.60
33988;DHT22;37428;53.580;-1.666;2023-07-20T11:39:00;20.20;48.70
33988;DHT22;37428;53.580;-1.666;2023-07-20T11:45:54;20.20;48.40
33988;DHT22;37428;53.580;-1.666;2023-07-20T11:48:59;20.80;49.30
33988;DHT22;37428;53.580;-1.666;2023-07-20T11:52:05;21.30;46.80
33988;DHT22;37428;53.580;-1.666;2023-07-20T11:55:14;21.70;44.90
33988;DHT22;37428;53.580;-1.666;2023-07-20T11:58:22;22.20;43.80
33988;DHT22;37428;53.580;-1.666;2023-07-20T12:01:30;22.50;47.80
33988;DHT22;37428;53.580;-1.666;2023-07-20T12:04:38;22.10;45.30
33988;DHT22;37428;53.580;-1.666;2023-07-20T12:07:44;21.60;46.40
33988;DHT22;37428;53.580;-1.666;2023-07-20T12:11:26;21.70;46.50
33988;DHT22;37428;53.580;-1.666;2023-07-20T12:14:33;22.20;45.40
33988;DHT22;37428;53.580;-1.666;2023-07-20T12:17:42;22.20;46.40
33988;DHT22;37428;53.580;-1.666;2023-07-20T12:20:44;21.70;43.70
33988;DHT22;37428;53.580;-1.666;2023-07-20T12:23:49;21.40;45.30
33988;DHT22;37428;53.580;-1.666;2023-07-20T12:27:06;21.80;46.10
33988;DHT22;37428;53.580;-1.666;2023-07-20T12:30:12;22.40;46.30
33988;DHT22;37428;53.580;-1.666;2023-07-20T12:33:18;23.10;45.50
33988;DHT22;37428;53.580;-1.666;2023-07-20T12:36:20;23.10;43.40
33988;DHT22;37428;53.580;-1.666;2023-07-20T12:39:22;22.40;42.60
33988;DHT22;37428;53.580;-1.666;2023-07-20T12:42:42;22.50;43.80
33988;DHT22;37428;53.580;-1.666;2023-07-20T12:45:47;22.40;43.90
33988;DHT22;37428;53.580;-1.666;2023-07-20T12:48:53;22.10;43.40
33988;DHT22;37428;53.580;-1.666;2023-07-20T12:51:55;21.90;42.80
33988;DHT22;37428;53.580;-1.666;2023-07-20T12:54:58;22.30;43.50
33988;DHT22;37428;53.580;-1.666;2023-07-20T12:58:15;22.80;43.00
33988;DHT22;37428;53.580;-1.666;2023-07-20T13:01:29;23.00;44.80
33988;DHT22;37428;53.580;-1.666;2023-07-20T13:04:34;22.70;43.00
33988;DHT22;37428;53.580;-1.666;2023-07-20T13:07:42;23.00;43.50
33988;DHT22;37428;53.580;-1.666;2023-07-20T13:10:44;22.60;44.70
33988;DHT22;37428;53.580;-1.666;2023-07-20T13:13:46;22.10;42.90
33988;DHT22;37428;53.580;-1.666;2023-07-20T13:16:48;22.50;42.20
33988;DHT22;37428;53.580;-1.666;2023-07-20T13:19:53;22.80;41.10
33988;DHT22;37428;53.580;-1.666;2023-07-20T13:22:57;23.20;41.20
33988;DHT22;37428;53.580;-1.666;2023-07-20T13:26:04;23.10;40.40
33988;DHT22;37428;53.580;-1.666;2023-07-20T13:29:06;23.30;41.10
33988;DHT22;37428;53.580;-1.666;2023-07-20T13:32:12;23.40;41.30
33988;DHT22;37428;53.580;-1.666;2023-07-20T13:35:17;23.70;41.00
33988;DHT22;37428;53.580;-1.666;2023-07-20T13:38:21;23.70;40.20
33988;DHT22;37428;53.580;-1.666;2023-07-20T13:41:24;23.30;40.80
33988;DHT22;37428;53.580;-1.666;2023-07-20T13:44:27;23.50;41.20
33988;DHT22;37428;53.580;-1.666;2023-07-20T13:47:39;23.20;40.10
33988;DHT22;37428;53.580;-1.666;2023-07-20T13:50:44;23.40;40.30
33988;DHT22;37428;53.580;-1.666;2023-07-20T13:53:48;23.70;41.70
33988;DHT22;37428;53.580;-1.666;2023-07-20T13:56:50;23.80;38.50
33988;DHT22;37428;53.580;-1.666;2023-07-20T13:59:53;24.00;38.60
33988;DHT22;37428;53.580;-1.666;2023-07-20T14:02:55;23.50;38.40
33988;DHT22;37428;53.580;-1.666;2023-07-20T14:06:01;23.10;39.20
33988;DHT22;37428;53.580;-1.666;2023-07-20T14:09:03;23.50;41.50
33988;DHT22;37428;53.580;-1.666;2023-07-20T14:12:08;23.70;39.80
33988;DHT22;37428;53.580;-1.666;2023-07-20T14:15:12;23.50;38.80
33988;DHT22;37428;53.580;-1.666;2023-07-20T14:18:20;23.80;39.60
33988;DHT22;37428;53.580;-1.666;2023-07-20T14:21:26;23.90;39.30
33988;DHT22;37428;53.580;-1.666;2023-07-20T14:24:29;24.20;39.40
33988;DHT22;37428;53.580;-1.666;2023-07-20T14:27:31;24.10;38.60
33988;DHT22;37428;53.580;-1.666;2023-07-20T14:30:56;24.10;38.70
33988;DHT22;37428;53.580;-1.666;2023-07-20T14:34:01;24.20;37.60
33988;DHT22;37428;53.580;-1.666;2023-07-20T14:37:06;24.40;38.70
33988;DHT22;37428;53.580;-1.666;2023-07-20T14:40:30;24.50;38.60
33988;DHT22;37428;53.580;-1.666;2023-07-20T14:43:39;24.20;38.80
33988;DHT22;37428;53.580;-1.666;2023-07-20T14:46:43;24.00;37.20
33988;DHT22;37428;53.580;-1.666;2023-07-20T14:49:51;23.50;37.00
33988;DHT22;37428;53.580;-1.666;2023-07-20T14:52:55;23.60;36.80
33988;DHT22;37428;53.580;-1.666;2023-07-20T14:56:00;23.70;38.40
33988;DHT22;37428;53.580;-1.666;2023-07-20T14:59:08;24.10;39.90
33988;DHT22;37428;53.580;-1.666;2023-07-20T15:02:17;24.40;39.20
33988;DHT22;37428;53.580;-1.666;2023-07-20T15:05:38;23.90;39.70
33988;DHT22;37428;53.580;-1.666;2023-07-20T15:08:45;23.10;40.40
33988;DHT22;37428;53.580;-1.666;2023-07-20T15:11:55;22.50;40.50
33988;DHT22;37428;53.580;-1.666;2023-07-20T15:15:06;22.10;41.60
33988;DHT22;37428;53.580;-1.666;2023-07-20T15:18:08;22.20;42.20
33988;DHT22;37428;53.580;-1.666;2023-07-20T15:21:10;22.20;41.70
33988;DHT22;37428;53.580;-1.666;2023-07-20T15:24:28;21.90;42.70
33988;DHT22;37428;53.580;-1.666;2023-07-20T15:27:51;21.60;43.90
33988;DHT22;37428;53.580;-1.666;2023-07-20T15:31:21;21.30;44.90
33988;DHT22;37428;53.580;-1.666;2023-07-20T15:34:27;20.90;45.40
33988;DHT22;37428;53.580;-1.666;2023-07-20T15:37:33;20.70;45.90
33988;DHT22;37428;53.580;-1.666;2023-07-20T15:40:43;20.70;46.20
33988;DHT22;37428;53.580;-1.666;2023-07-20T15:43:47;21.00;47.10
33988;DHT22;37428;53.580;-1.666;2023-07-20T15:47:05;21.30;45.70
33988;DHT22;37428;53.580;-1.666;2023-07-20T15:50:10;21.20;44.80
33988;DHT22;37428;53.580;-1.666;2023-07-20T15:53:20;20.90;44.90
33988;DHT22;37428;53.580;-1.666;2023-07-20T15:56:24;20.90;45.10
33988;DHT22;37428;53.580;-1.666;2023-07-20T15:59:33;20.80;44.60
33988;DHT22;37428;53.580;-1.666;2023-07-20T16:02:35;20.60;45.30
33988;DHT22;37428;53.580;-1.666;2023-07-20T16:05:38;20.40;43.10
33988;DHT22;37428;53.580;-1.666;2023-07-20T16:08:42;20.30;44.00
33988;DHT22;37428;53.580;-1.666;2023-07-20T16:11:46;20.20;45.20
33988;DHT22;37428;53.580;-1.666;2023-07-20T16:14:50;20.10;46.40
33988;DHT22;37428;53.580;-1.666;2023-07-20T16:17:52;20.00;46.60
33988;DHT22;37428;53.580;-1.666;2023-07-20T16:21:04;19.90;47.40
33988;DHT22;37428;53.580;-1.666;2023-07-20T16:24:35;19.80;48.10
33988;DHT22;37428;53.580;-1.666;2023-07-20T16:27:41;19.80;49.30
33988;DHT22;37428;53.580;-1.666;2023-07-20T16:30:46;19.70;49.50
33988;DHT22;37428;53.580;-1.666;2023-07-20T16:33:49;19.50;48.90
33988;DHT22;37428;53.580;-1.666;2023-07-20T16:36:53;19.40;48.60
33988;DHT22;37428;53.580;-1.666;2023-07-20T16:39:56;19.30;49.50
33988;DHT22;37428;53.580;-1.666;2023-07-20T16:43:14;19.20;49.80
33988;DHT22;37428;53.580;-1.666;2023-07-20T16:46:34;19.10;51.00
33988;DHT22;37428;53.580;-1.666;2023-07-20T16:49:57;19.10;50.20
33988;DHT22;37428;53.580;-1.666;2023-07-20T16:53:13;19.10;50.80
33988;DHT22;37428;53.580;-1.666;2023-07-20T16:56:15;19.00;52.20
33988;DHT22;37428;53.580;-1.666;2023-07-20T16:59:19;19.00;52.20
33988;DHT22;37428;53.580;-1.666;2023-07-20T17:02:25;19.10;52.40
33988;DHT22;37428;53.580;-1.666;2023-07-20T17:05:52;19.10;52.00
33988;DHT22;37428;53.580;-1.666;2023-07-20T17:09:24;19.00;51.10
33988;DHT22;37428;53.580;-1.666;2023-07-20T17:12:41;18.90;50.90
33988;DHT22;37428;53.580;-1.666;2023-07-20T17:15:47;18.80;50.70
33988;DHT22;37428;53.580;-1.666;2023-07-20T17:18:52;18.70;51.50
33988;DHT22;37428;53.580;-1.666;2023-07-20T17:21:56;18.70;51.70
33988;DHT22;37428;53.580;-1.666;2023-07-20T17:25:42;18.60;52.00
33988;DHT22;37428;53.580;-1.666;2023-07-20T17:28:31;18.70;52.30
33988;DHT22;37428;53.580;-1.666;2023-07-20T17:31:44;18.60;52.80
33988;DHT22;37428;53.580;-1.666;2023-07-20T17:34:52;18.50;52.60
33988;DHT22;37428;53.580;-1.666;2023-07-20T17:38:00;18.40;52.20
33988;DHT22;37428;53.580;-1.666;2023-07-20T17:41:04;18.30;51.50
33988;DHT22;37428;53.580;-1.666;2023-07-20T17:44:11;18.20;51.80
33988;DHT22;37428;53.580;-1.666;2023-07-20T17:47:21;18.30;52.90
33988;DHT22;37428;53.580;-1.666;2023-07-20T17:50:26;18.30;53.40
33988;DHT22;37428;53.580;-1.666;2023-07-20T17:53:28;18.40;54.00
33988;DHT22;37428;53.580;-1.666;2023-07-20T17:56:32;18.50;55.70
33988;DHT22;37428;53.580;-1.666;2023-07-20T17:59:36;18.70;54.90
33988;DHT22;37428;53.580;-1.666;2023-07-20T18:02:40;18.70;53.80
33988;DHT22;37428;53.580;-1.666;2023-07-20T18:05:43;18.60;53.00
33988;DHT22;37428;53.580;-1.666;2023-07-20T18:08:50;18.50;53.70
33988;DHT22;37428;53.580;-1.666;2023-07-20T18:11:52;18.40;54.30
33988;DHT22;37428;53.580;-1.666;2023-07-20T18:14:54;18.20;54.50
33988;DHT22;37428;53.580;-1.666;2023-07-20T18:18:01;18.10;54.70
33988;DHT22;37428;53.580;-1.666;2023-07-20T18:21:06;17.80;55.10
33988;DHT22;37428;53.580;-1.666;2023-07-20T18:24:08;17.70;56.60
33988;DHT22;37428;53.580;-1.666;2023-07-20T18:27:16;17.60;57.30
33988;DHT22;37428;53.580;-1.666;2023-07-20T18:30:20;17.50;58.10
33988;DHT22;37428;53.580;-1.666;2023-07-20T18:33:49;17.40;57.60
33988;DHT22;37428;53.580;-1.666;2023-07-20T18:37:12;17.30;58.90
33988;DHT22;37428;53.580;-1.666;2023-07-20T18:40:20;17.30;59.60
33988;DHT22;37428;53.580;-1.666;2023-07-20T18:43:22;17.30;59.80
33988;DHT22;37428;53.580;-1.666;2023-07-20T18:46:24;17.20;60.10
33988;DHT22;37428;53.580;-1.666;2023-07-20T18:49:46;17.20;59.80
33988;DHT22;37428;53.580;-1.666;2023-07-20T18:52:54;17.20;59.90
33988;DHT22;37428;53.580;-1.666;2023-07-20T18:56:03;17.10;59.60
33988;DHT22;37428;53.580;-1.666;2023-07-20T18:59:17;17.00;59.90
33988;DHT22;37428;53.580;-1.666;2023-07-20T19:02:26;16.80;60.60
33988;DHT22;37428;53.580;-1.666;2023-07-20T19:05:33;16.80;61.50
33988;DHT22;37428;53.580;-1.666;2023-07-20T19:08:38;16.90;62.10
33988;DHT22;37428;53.580;-1.666;2023-07-20T19:11:40;16.80;62.40
33988;DHT22;37428;53.580;-1.666;2023-07-20T19:14:42;16.80;62.70
33988;DHT22;37428;53.580;-1.666;2023-07-20T19:17:46;16.80;63.20
33988;DHT22;37428;53.580;-1.666;2023-07-20T19:21:03;16.80;62.90
33988;DHT22;37428;53.580;-1.666;2023-07-20T19:24:09;16.70;62.60
33988;DHT22;37428;53.580;-1.666;2023-07-20T19:27:29;16.70;62.30
33988;DHT22;37428;53.580;-1.666;2023-07-20T19:30:31;16.80;62.70
33988;DHT22;37428;53.580;-1.666;2023-07-20T19:33:34;16.70;63.10
33988;DHT22;37428;53.580;-1.666;2023-07-20T19:36:37;16.70;63.00
33988;DHT22;37428;53.580;-1.666;2023-07-20T19:39:49;16.70;63.70
33988;DHT22;37428;53.580;-1.666;2023-07-20T19:42:52;16.60;63.30
33988;DHT22;37428;53.580;-1.666;2023-07-20T19:46:09;16.50;62.60
33988;DHT22;37428;53.580;-1.666;2023-07-20T19:49:11;16.40;62.60
33988;DHT22;37428;53.580;-1.666;2023-07-20T19:52:15;16.30;63.30
33988;DHT22;37428;53.580;-1.666;2023-07-20T19:55:23;16.30;62.40
33988;DHT22;37428;53.580;-1.666;2023-07-20T19:58:25;16.10;63.20
33988;DHT22;37428;53.580;-1.666;2023-07-20T20:01:34;16.00;63.70
33988;DHT22;37428;53.580;-1.666;2023-07-20T20:04:38;15.90;63.40
33988;DHT22;37428;53.580;-1.666;2023-07-20T20:07:45;15.90;64.80
33988;DHT22;37428;53.580;-1.666;2023-07-20T20:11:26;15.90;65.10
33988;DHT22;37428;53.580;-1.666;2023-07-20T20:14:28;15.90;64.80
33988;DHT22;37428;53.580;-1.666;2023-07-20T20:17:31;15.80;65.60
33988;DHT22;37428;53.580;-1.666;2023-07-20T20:20:33;15.80;65.90
33988;DHT22;37428;53.580;-1.666;2023-07-20T20:23:45;15.80;67.20
33988;DHT22;37428;53.580;-1.666;2023-07-20T20:26:58;15.80;66.90
33988;DHT22;37428;53.580;-1.666;2023-07-20T20:30:15;15.80;67.20
33988;DHT22;37428;53.580;-1.666;2023-07-20T20:33:33;15.80;67.90
33988;DHT22;37428;53.580;-1.666;2023-07-20T20:36:36;15.60;67.70